sensor_id;sensor_type;location;lat;lon;timestamp;P1;durP1;ratioP1;P2;durP2;ratioP2
75139;SDS011;63714;55.812;37.658;2022-11-20T00:01:08;12.05;;;6.00;;
75139;SDS011;63714;55.812;37.658;2022-11-20T00:03:38;12.10;;;5.43;;
75139;SDS011;63714;55.812;37.658;2022-11-20T00:06:05;8.25;;;3.65;;
75139;SDS011;63714;55.812;37.658;2022-11-20T00:08:32;11.00;;;5.20;;
75139;SDS011;63714;55.812;37.658;2022-11-20T00:11:05;10.35;;;5.57;;
75139;SDS011;63714;55.812;37.658;2022-11-20T00:13:32;9.25;;;5.07;;
75139;SDS011;63714;55.812;37.658;2022-11-20T00:15:58;12.48;;;5.43;;
75139;SDS011;63714;55.812;37.658;2022-11-20T00:18:25;11.40;;;5.90;;
75139;SDS011;63714;55.812;37.658;2022-11-20T00:20:52;9.85;;;5.50;;
75139;SDS011;63714;55.812;37.658;2022-11-20T00:23:17;8.48;;;4.80;;
75139;SDS011;63714;55.812;37.658;2022-11-20T00:25:43;9.75;;;4.93;;
75139;SDS011;63714;55.812;37.658;2022-11-20T00:28:09;9.57;;;4.90;;
75139;SDS011;63714;55.812;37.658;2022-11-20T00:30:34;9.25;;;4.75;;
75139;SDS011;63714;55.812;37.658;2022-11-20T00:33:00;8.70;;;4.13;;
75139;SDS011;63714;55.812;37.658;2022-11-20T00:35:25;10.63;;;5.25;;
75139;SDS011;63714;55.812;37.658;2022-11-20T00:37:51;9.32;;;4.70;;
75139;SDS011;63714;55.812;37.658;2022-11-20T00:40:16;10.13;;;5.28;;
75139;SDS011;63714;55.812;37.658;2022-11-20T00:42:42;8.52;;;4.80;;
75139;SDS011;63714;55.812;37.658;2022-11-20T00:45:08;8.55;;;4.85;;
75139;SDS011;63714;55.812;37.658;2022-11-20T00:47:33;8.90;;;5.30;;
75139;SDS011;63714;55.812;37.658;2022-11-20T00:49:59;8.70;;;4.47;;
75139;SDS011;63714;55.812;37.658;2022-11-20T00:52:25;7.80;;;3.97;;
75139;SDS011;63714;55.812;37.658;2022-11-20T00:54:50;7.60;;;4.03;;
75139;SDS011;63714;55.812;37.658;2022-11-20T00:57:16;8.40;;;4.50;;
75139;SDS011;63714;55.812;37.658;2022-11-20T00:59:41;7.93;;;4.53;;
75139;SDS011;63714;55.812;37.658;2022-11-20T01:02:07;7.57;;;3.95;;
75139;SDS011;63714;55.812;37.658;2022-11-20T01:04:32;9.02;;;4.47;;
75139;SDS011;63714;55.812;37.658;2022-11-20T01:06:58;7.32;;;3.80;;
75139;SDS011;63714;55.812;37.658;2022-11-20T01:09:23;9.00;;;4.30;;
75139;SDS011;63714;55.812;37.658;2022-11-20T01:11:49;8.02;;;4.28;;
75139;SDS011;63714;55.812;37.658;2022-11-20T01:14:16;5.93;;;3.90;;
75139;SDS011;63714;55.812;37.658;2022-11-20T01:19:12;7.38;;;3.90;;
75139;SDS011;63714;55.812;37.658;2022-11-20T01:21:40;7.47;;;3.92;;
75139;SDS011;63714;55.812;37.658;2022-11-20T01:24:08;7.25;;;3.83;;
75139;SDS011;63714;55.812;37.658;2022-11-20T01:26:37;7.13;;;3.90;;
75139;SDS011;63714;55.812;37.658;2022-11-20T01:29:06;8.48;;;4.25;;
75139;SDS011;63714;55.812;37.658;2022-11-20T01:31:33;7.50;;;3.25;;
75139;SDS011;63714;55.812;37.658;2022-11-20T01:34:01;9.13;;;4.22;;
75139;SDS011;63714;55.812;37.658;2022-11-20T01:36:32;7.43;;;4.25;;
75139;SDS011;63714;55.812;37.658;2022-11-20T01:39:02;8.07;;;4.07;;
75139;SDS011;63714;55.812;37.658;2022-11-20T01:41:31;4.93;;;3.00;;
75139;SDS011;63714;55.812;37.658;2022-11-20T01:44:18;6.53;;;4.10;;
75139;SDS011;63714;55.812;37.658;2022-11-20T01:46:52;7.70;;;4.07;;
75139;SDS011;63714;55.812;37.658;2022-11-20T01:49:34;5.45;;;3.22;;
75139;SDS011;63714;55.812;37.658;2022-11-20T01:52:41;6.80;;;4.13;;
75139;SDS011;63714;55.812;37.658;2022-11-20T01:55:08;7.00;;;3.45;;
75139;SDS011;63714;55.812;37.658;2022-11-20T01:58:01;5.38;;;2.85;;
75139;SDS011;63714;55.812;37.658;2022-11-20T02:00:28;6.72;;;3.75;;
75139;SDS011;63714;55.812;37.658;2022-11-20T02:02:55;8.25;;;4.03;;
75139;SDS011;63714;55.812;37.658;2022-11-20T02:08:08;5.72;;;3.53;;
75139;SDS011;63714;55.812;37.658;2022-11-20T02:10:34;6.18;;;2.78;;
75139;SDS011;63714;55.812;37.658;2022-11-20T02:13:00;6.75;;;3.17;;
75139;SDS011;63714;55.812;37.658;2022-11-20T02:15:44;5.43;;;3.33;;
75139;SDS011;63714;55.812;37.658;2022-11-20T02:18:10;6.90;;;3.72;;
75139;SDS011;63714;55.812;37.658;2022-11-20T02:20:39;7.47;;;3.67;;
75139;SDS011;63714;55.812;37.658;2022-11-20T02:23:12;6.32;;;3.40;;
75139;SDS011;63714;55.812;37.658;2022-11-20T02:25:41;6.63;;;3.10;;
75139;SDS011;63714;55.812;37.658;2022-11-20T02:28:08;6.15;;;3.67;;
75139;SDS011;63714;55.812;37.658;2022-11-20T02:30:35;7.07;;;3.60;;
75139;SDS011;63714;55.812;37.658;2022-11-20T02:33:00;7.60;;;3.88;;
75139;SDS011;63714;55.812;37.658;2022-11-20T02:37:56;8.65;;;4.82;;
75139;SDS011;63714;55.812;37.658;2022-11-20T02:40:24;7.40;;;3.80;;
75139;SDS011;63714;55.812;37.658;2022-11-20T02:42:54;7.53;;;4.05;;
75139;SDS011;63714;55.812;37.658;2022-11-20T02:45:20;6.95;;;3.50;;
75139;SDS011;63714;55.812;37.658;2022-11-20T02:47:46;7.25;;;3.38;;
75139;SDS011;63714;55.812;37.658;2022-11-20T02:50:12;7.13;;;3.58;;
75139;SDS011;63714;55.812;37.658;2022-11-20T02:52:37;7.85;;;3.67;;
75139;SDS011;63714;55.812;37.658;2022-11-20T02:55:03;8.77;;;3.88;;
75139;SDS011;63714;55.812;37.658;2022-11-20T02:57:29;6.75;;;3.25;;
75139;SDS011;63714;55.812;37.658;2022-11-20T02:59:55;9.27;;;4.00;;
75139;SDS011;63714;55.812;37.658;2022-11-20T03:02:21;7.22;;;3.55;;
75139;SDS011;63714;55.812;37.658;2022-11-20T03:04:47;6.93;;;3.13;;
75139;SDS011;63714;55.812;37.658;2022-11-20T03:07:12;8.63;;;3.40;;
75139;SDS011;63714;55.812;37.658;2022-11-20T03:09:38;7.97;;;4.00;;
75139;SDS011;63714;55.812;37.658;2022-11-20T03:12:04;7.95;;;4.32;;
75139;SDS011;63714;55.812;37.658;2022-11-20T03:14:30;7.00;;;3.53;;
75139;SDS011;63714;55.812;37.658;2022-11-20T03:16:55;6.53;;;4.00;;
75139;SDS011;63714;55.812;37.658;2022-11-20T03:19:21;6.68;;;3.40;;
75139;SDS011;63714;55.812;37.658;2022-11-20T03:21:47;7.00;;;3.95;;
75139;SDS011;63714;55.812;37.658;2022-11-20T03:24:12;6.75;;;3.47;;
75139;SDS011;63714;55.812;37.658;2022-11-20T03:26:39;7.60;;;4.18;;
75139;SDS011;63714;55.812;37.658;2022-11-20T03:29:05;8.27;;;3.60;;
75139;SDS011;63714;55.812;37.658;2022-11-20T03:31:32;5.90;;;3.33;;
75139;SDS011;63714;55.812;37.658;2022-11-20T03:33:59;8.88;;;3.78;;
75139;SDS011;63714;55.812;37.658;2022-11-20T03:36:26;7.55;;;3.55;;
75139;SDS011;63714;55.812;37.658;2022-11-20T03:38:53;9.38;;;4.30;;
75139;SDS011;63714;55.812;37.658;2022-11-20T03:41:21;7.30;;;3.90;;
75139;SDS011;63714;55.812;37.658;2022-11-20T03:43:52;8.80;;;4.20;;
75139;SDS011;63714;55.812;37.658;2022-11-20T03:46:19;8.13;;;3.83;;
75139;SDS011;63714;55.812;37.658;2022-11-20T03:48:45;8.95;;;4.32;;
75139;SDS011;63714;55.812;37.658;2022-11-20T03:51:12;7.60;;;4.45;;
75139;SDS011;63714;55.812;37.658;2022-11-20T03:53:46;8.63;;;4.07;;
75139;SDS011;63714;55.812;37.658;2022-11-20T03:56:14;8.60;;;4.18;;
75139;SDS011;63714;55.812;37.658;2022-11-20T03:58:40;8.73;;;4.28;;
75139;SDS011;63714;55.812;37.658;2022-11-20T04:03:36;7.93;;;3.88;;
75139;SDS011;63714;55.812;37.658;2022-11-20T04:06:08;7.78;;;3.83;;
75139;SDS011;63714;55.812;37.658;2022-11-20T04:08:36;9.45;;;3.90;;
75139;SDS011;63714;55.812;37.658;2022-11-20T04:11:11;5.93;;;3.33;;
75139;SDS011;63714;55.812;37.658;2022-11-20T04:13:40;8.77;;;3.88;;
75139;SDS011;63714;55.812;37.658;2022-11-20T04:16:07;5.97;;;3.67;;
75139;SDS011;63714;55.812;37.658;2022-11-20T04:18:34;8.90;;;3.95;;
75139;SDS011;63714;55.812;37.658;2022-11-20T04:21:00;7.40;;;3.88;;
75139;SDS011;63714;55.812;37.658;2022-11-20T04:23:26;9.15;;;3.65;;
75139;SDS011;63714;55.812;37.658;2022-11-20T04:25:52;7.43;;;4.07;;
75139;SDS011;63714;55.812;37.658;2022-11-20T04:28:18;7.63;;;3.63;;
75139;SDS011;63714;55.812;37.658;2022-11-20T04:30:44;8.50;;;3.97;;
75139;SDS011;63714;55.812;37.658;2022-11-20T04:33:09;6.65;;;3.45;;
75139;SDS011;63714;55.812;37.658;2022-11-20T04:35:35;8.13;;;4.13;;
75139;SDS011;63714;55.812;37.658;2022-11-20T04:38:01;7.32;;;3.85;;
75139;SDS011;63714;55.812;37.658;2022-11-20T04:40:27;6.55;;;3.58;;
75139;SDS011;63714;55.812;37.658;2022-11-20T04:42:53;6.78;;;3.92;;
75139;SDS011;63714;55.812;37.658;2022-11-20T04:45:19;10.05;;;4.53;;
75139;SDS011;63714;55.812;37.658;2022-11-20T04:47:45;11.00;;;4.80;;
75139;SDS011;63714;55.812;37.658;2022-11-20T04:50:11;8.48;;;4.57;;
75139;SDS011;63714;55.812;37.658;2022-11-20T04:52:36;8.20;;;4.25;;
75139;SDS011;63714;55.812;37.658;2022-11-20T04:55:02;9.93;;;4.93;;
75139;SDS011;63714;55.812;37.658;2022-11-20T04:57:29;8.45;;;4.68;;
75139;SDS011;63714;55.812;37.658;2022-11-20T04:59:54;8.13;;;3.83;;
75139;SDS011;63714;55.812;37.658;2022-11-20T05:02:20;7.53;;;4.03;;
75139;SDS011;63714;55.812;37.658;2022-11-20T05:04:46;8.45;;;3.60;;
75139;SDS011;63714;55.812;37.658;2022-11-20T05:07:11;7.35;;;4.18;;
75139;SDS011;63714;55.812;37.658;2022-11-20T05:09:37;10.20;;;4.72;;
75139;SDS011;63714;55.812;37.658;2022-11-20T05:12:03;10.05;;;4.85;;
75139;SDS011;63714;55.812;37.658;2022-11-20T05:14:31;8.50;;;4.70;;
75139;SDS011;63714;55.812;37.658;2022-11-20T05:16:57;8.32;;;4.43;;
75139;SDS011;63714;55.812;37.658;2022-11-20T05:19:22;9.07;;;4.32;;
75139;SDS011;63714;55.812;37.658;2022-11-20T05:21:48;10.90;;;4.30;;
75139;SDS011;63714;55.812;37.658;2022-11-20T05:24:14;9.82;;;4.55;;
75139;SDS011;63714;55.812;37.658;2022-11-20T05:26:39;10.40;;;4.68;;
75139;SDS011;63714;55.812;37.658;2022-11-20T05:29:05;9.93;;;4.70;;
75139;SDS011;63714;55.812;37.658;2022-11-20T05:31:30;9.18;;;4.82;;
75139;SDS011;63714;55.812;37.658;2022-11-20T05:33:56;8.25;;;4.63;;
75139;SDS011;63714;55.812;37.658;2022-11-20T05:36:22;8.15;;;4.68;;
75139;SDS011;63714;55.812;37.658;2022-11-20T05:38:48;11.90;;;5.88;;
75139;SDS011;63714;55.812;37.658;2022-11-20T05:41:15;9.95;;;5.28;;
75139;SDS011;63714;55.812;37.658;2022-11-20T05:43:43;8.63;;;4.28;;
75139;SDS011;63714;55.812;37.658;2022-11-20T05:46:11;12.25;;;5.30;;
75139;SDS011;63714;55.812;37.658;2022-11-20T05:48:39;13.55;;;5.53;;
75139;SDS011;63714;55.812;37.658;2022-11-20T05:51:06;13.18;;;5.93;;
75139;SDS011;63714;55.812;37.658;2022-11-20T05:53:33;11.43;;;5.07;;
75139;SDS011;63714;55.812;37.658;2022-11-20T05:56:04;10.68;;;5.38;;
75139;SDS011;63714;55.812;37.658;2022-11-20T05:58:36;11.27;;;5.20;;
75139;SDS011;63714;55.812;37.658;2022-11-20T06:01:06;10.05;;;5.07;;
75139;SDS011;63714;55.812;37.658;2022-11-20T06:03:32;10.40;;;4.95;;
75139;SDS011;63714;55.812;37.658;2022-11-20T06:05:58;12.10;;;5.72;;
75139;SDS011;63714;55.812;37.658;2022-11-20T06:08:25;11.63;;;5.22;;
75139;SDS011;63714;55.812;37.658;2022-11-20T06:10:51;10.85;;;5.70;;
75139;SDS011;63714;55.812;37.658;2022-11-20T06:13:16;10.30;;;4.95;;
75139;SDS011;63714;55.812;37.658;2022-11-20T06:15:47;12.43;;;5.70;;
75139;SDS011;63714;55.812;37.658;2022-11-20T06:18:14;10.73;;;5.65;;
75139;SDS011;63714;55.812;37.658;2022-11-20T06:20:39;10.75;;;5.05;;
75139;SDS011;63714;55.812;37.658;2022-11-20T06:23:04;12.60;;;6.03;;
75139;SDS011;63714;55.812;37.658;2022-11-20T06:25:30;10.55;;;5.10;;
75139;SDS011;63714;55.812;37.658;2022-11-20T06:27:55;10.10;;;5.10;;
75139;SDS011;63714;55.812;37.658;2022-11-20T06:30:21;18.55;;;6.40;;
75139;SDS011;63714;55.812;37.658;2022-11-20T06:32:46;12.00;;;5.78;;
75139;SDS011;63714;55.812;37.658;2022-11-20T06:35:12;12.65;;;5.47;;
75139;SDS011;63714;55.812;37.658;2022-11-20T06:37:37;8.90;;;4.82;;
75139;SDS011;63714;55.812;37.658;2022-11-20T06:40:03;9.38;;;5.30;;
75139;SDS011;63714;55.812;37.658;2022-11-20T06:42:29;11.13;;;5.88;;
75139;SDS011;63714;55.812;37.658;2022-11-20T06:44:55;12.00;;;5.95;;
75139;SDS011;63714;55.812;37.658;2022-11-20T06:47:20;10.85;;;5.63;;
75139;SDS011;63714;55.812;37.658;2022-11-20T06:49:46;9.85;;;5.95;;
75139;SDS011;63714;55.812;37.658;2022-11-20T06:52:11;11.23;;;5.72;;
75139;SDS011;63714;55.812;37.658;2022-11-20T06:54:37;11.27;;;5.50;;
75139;SDS011;63714;55.812;37.658;2022-11-20T06:57:02;12.02;;;5.85;;
75139;SDS011;63714;55.812;37.658;2022-11-20T06:59:28;10.63;;;5.28;;
75139;SDS011;63714;55.812;37.658;2022-11-20T07:01:53;11.57;;;5.70;;
75139;SDS011;63714;55.812;37.658;2022-11-20T07:04:19;13.82;;;6.40;;
75139;SDS011;63714;55.812;37.658;2022-11-20T07:06:44;11.68;;;6.20;;
75139;SDS011;63714;55.812;37.658;2022-11-20T07:09:10;11.52;;;6.25;;
75139;SDS011;63714;55.812;37.658;2022-11-20T07:11:36;12.52;;;5.82;;
75139;SDS011;63714;55.812;37.658;2022-11-20T07:14:01;8.65;;;4.88;;
75139;SDS011;63714;55.812;37.658;2022-11-20T07:16:27;10.75;;;5.35;;
75139;SDS011;63714;55.812;37.658;2022-11-20T07:18:53;11.75;;;5.65;;
75139;SDS011;63714;55.812;37.658;2022-11-20T07:21:18;11.98;;;6.30;;
75139;SDS011;63714;55.812;37.658;2022-11-20T07:23:44;9.90;;;5.35;;
75139;SDS011;63714;55.812;37.658;2022-11-20T07:26:10;10.35;;;5.60;;
75139;SDS011;63714;55.812;37.658;2022-11-20T07:28:36;11.13;;;5.97;;
75139;SDS011;63714;55.812;37.658;2022-11-20T07:31:02;12.02;;;6.70;;
75139;SDS011;63714;55.812;37.658;2022-11-20T07:33:28;11.30;;;6.28;;
75139;SDS011;63714;55.812;37.658;2022-11-20T07:35:54;11.25;;;5.50;;
75139;SDS011;63714;55.812;37.658;2022-11-20T07:38:19;12.63;;;6.13;;
75139;SDS011;63714;55.812;37.658;2022-11-20T07:40:45;12.00;;;5.78;;
75139;SDS011;63714;55.812;37.658;2022-11-20T07:43:11;15.35;;;6.38;;
75139;SDS011;63714;55.812;37.658;2022-11-20T07:45:36;12.98;;;6.13;;
75139;SDS011;63714;55.812;37.658;2022-11-20T07:48:02;13.50;;;5.55;;
75139;SDS011;63714;55.812;37.658;2022-11-20T07:50:27;12.70;;;6.53;;
75139;SDS011;63714;55.812;37.658;2022-11-20T07:52:59;9.90;;;6.03;;
75139;SDS011;63714;55.812;37.658;2022-11-20T07:55:26;14.27;;;6.32;;
75139;SDS011;63714;55.812;37.658;2022-11-20T07:57:55;11.60;;;6.25;;
75139;SDS011;63714;55.812;37.658;2022-11-20T08:00:21;12.40;;;5.97;;
75139;SDS011;63714;55.812;37.658;2022-11-20T08:02:47;14.55;;;7.03;;
75139;SDS011;63714;55.812;37.658;2022-11-20T08:05:12;11.35;;;6.60;;
75139;SDS011;63714;55.812;37.658;2022-11-20T08:07:41;13.00;;;6.47;;
75139;SDS011;63714;55.812;37.658;2022-11-20T08:10:09;13.95;;;6.38;;
75139;SDS011;63714;55.812;37.658;2022-11-20T08:12:36;12.30;;;6.43;;
75139;SDS011;63714;55.812;37.658;2022-11-20T08:15:27;12.65;;;6.55;;
75139;SDS011;63714;55.812;37.658;2022-11-20T08:17:58;10.57;;;6.00;;
75139;SDS011;63714;55.812;37.658;2022-11-20T08:20:24;12.75;;;6.72;;
75139;SDS011;63714;55.812;37.658;2022-11-20T08:22:50;11.73;;;6.43;;
75139;SDS011;63714;55.812;37.658;2022-11-20T08:25:15;13.90;;;6.93;;
75139;SDS011;63714;55.812;37.658;2022-11-20T08:27:41;15.10;;;7.00;;
75139;SDS011;63714;55.812;37.658;2022-11-20T08:30:07;15.77;;;7.47;;
75139;SDS011;63714;55.812;37.658;2022-11-20T08:32:33;16.25;;;7.00;;
75139;SDS011;63714;55.812;37.658;2022-11-20T08:35:00;17.48;;;7.20;;
75139;SDS011;63714;55.812;37.658;2022-11-20T08:37:26;12.27;;;6.68;;
75139;SDS011;63714;55.812;37.658;2022-11-20T08:39:51;13.43;;;7.45;;
75139;SDS011;63714;55.812;37.658;2022-11-20T08:42:18;12.60;;;6.82;;
75139;SDS011;63714;55.812;37.658;2022-11-20T08:44:44;15.48;;;7.15;;
75139;SDS011;63714;55.812;37.658;2022-11-20T08:47:09;14.77;;;6.57;;
75139;SDS011;63714;55.812;37.658;2022-11-20T08:49:35;13.27;;;7.28;;
75139;SDS011;63714;55.812;37.658;2022-11-20T08:52:00;15.15;;;7.40;;
75139;SDS011;63714;55.812;37.658;2022-11-20T08:54:26;12.55;;;7.30;;
75139;SDS011;63714;55.812;37.658;2022-11-20T08:56:51;15.20;;;8.00;;
75139;SDS011;63714;55.812;37.658;2022-11-20T08:59:17;16.35;;;7.75;;
75139;SDS011;63714;55.812;37.658;2022-11-20T09:01:42;15.90;;;7.72;;
75139;SDS011;63714;55.812;37.658;2022-11-20T09:04:08;16.15;;;7.93;;
75139;SDS011;63714;55.812;37.658;2022-11-20T09:06:34;15.75;;;7.82;;
75139;SDS011;63714;55.812;37.658;2022-11-20T09:08:59;15.88;;;7.70;;
75139;SDS011;63714;55.812;37.658;2022-11-20T09:11:25;16.02;;;8.02;;
75139;SDS011;63714;55.812;37.658;2022-11-20T09:13:50;14.82;;;7.97;;
75139;SDS011;63714;55.812;37.658;2022-11-20T09:16:16;16.88;;;7.95;;
75139;SDS011;63714;55.812;37.658;2022-11-20T09:18:41;15.57;;;9.10;;
75139;SDS011;63714;55.812;37.658;2022-11-20T09:21:10;18.70;;;7.95;;
75139;SDS011;63714;55.812;37.658;2022-11-20T09:23:38;15.63;;;7.93;;
75139;SDS011;63714;55.812;37.658;2022-11-20T09:26:09;18.88;;;8.38;;
75139;SDS011;63714;55.812;37.658;2022-11-20T09:28:36;16.65;;;8.15;;
75139;SDS011;63714;55.812;37.658;2022-11-20T09:31:06;16.27;;;8.07;;
75139;SDS011;63714;55.812;37.658;2022-11-20T09:33:32;14.75;;;8.55;;
75139;SDS011;63714;55.812;37.658;2022-11-20T09:35:58;18.60;;;8.48;;
75139;SDS011;63714;55.812;37.658;2022-11-20T09:38:23;15.70;;;8.43;;
75139;SDS011;63714;55.812;37.658;2022-11-20T09:41:04;18.00;;;8.70;;
75139;SDS011;63714;55.812;37.658;2022-11-20T09:52:01;17.30;;;8.65;;
75139;SDS011;63714;55.812;37.658;2022-11-20T09:54:32;18.48;;;8.75;;
75139;SDS011;63714;55.812;37.658;2022-11-20T09:57:05;21.38;;;9.35;;
75139;SDS011;63714;55.812;37.658;2022-11-20T09:59:43;18.13;;;7.82;;
75139;SDS011;63714;55.812;37.658;2022-11-20T10:02:17;17.13;;;8.73;;
75139;SDS011;63714;55.812;37.658;2022-11-20T10:04:59;18.20;;;8.40;;
75139;SDS011;63714;55.812;37.658;2022-11-20T10:07:43;19.60;;;9.43;;
75139;SDS011;63714;55.812;37.658;2022-11-20T10:10:16;20.60;;;9.48;;
75139;SDS011;63714;55.812;37.658;2022-11-20T10:15:31;21.95;;;10.25;;
75139;SDS011;63714;55.812;37.658;2022-11-20T10:18:15;19.70;;;8.55;;
75139;SDS011;63714;55.812;37.658;2022-11-20T10:20:58;22.60;;;10.13;;
75139;SDS011;63714;55.812;37.658;2022-11-20T10:23:33;20.10;;;8.80;;
75139;SDS011;63714;55.812;37.658;2022-11-20T10:31:14;21.65;;;11.15;;
75139;SDS011;63714;55.812;37.658;2022-11-20T10:33:51;19.05;;;8.57;;
75139;SDS011;63714;55.812;37.658;2022-11-20T10:39:06;22.90;;;9.40;;
75139;SDS011;63714;55.812;37.658;2022-11-20T10:41:42;18.38;;;9.05;;
75139;SDS011;63714;55.812;37.658;2022-11-20T10:44:14;14.32;;;7.63;;
75139;SDS011;63714;55.812;37.658;2022-11-20T10:47:03;19.45;;;8.70;;
75139;SDS011;63714;55.812;37.658;2022-11-20T10:49:30;20.38;;;7.95;;
75139;SDS011;63714;55.812;37.658;2022-11-20T10:57:20;22.52;;;7.60;;
75139;SDS011;63714;55.812;37.658;2022-11-20T11:02:21;17.08;;;7.90;;
75139;SDS011;63714;55.812;37.658;2022-11-20T11:04:51;19.02;;;8.43;;
75139;SDS011;63714;55.812;37.658;2022-11-20T11:07:28;19.55;;;7.07;;
75139;SDS011;63714;55.812;37.658;2022-11-20T11:09:59;17.50;;;7.78;;
75139;SDS011;63714;55.812;37.658;2022-11-20T11:12:25;18.33;;;7.82;;
75139;SDS011;63714;55.812;37.658;2022-11-20T11:14:52;16.33;;;8.07;;
75139;SDS011;63714;55.812;37.658;2022-11-20T11:17:32;17.60;;;7.88;;
75139;SDS011;63714;55.812;37.658;2022-11-20T11:22:25;17.50;;;8.70;;
75139;SDS011;63714;55.812;37.658;2022-11-20T11:24:54;16.10;;;7.85;;
75139;SDS011;63714;55.812;37.658;2022-11-20T11:27:19;15.45;;;7.43;;
75139;SDS011;63714;55.812;37.658;2022-11-20T11:29:45;17.30;;;7.80;;
75139;SDS011;63714;55.812;37.658;2022-11-20T11:32:13;18.50;;;8.15;;
75139;SDS011;63714;55.812;37.658;2022-11-20T11:34:41;17.17;;;8.00;;
75139;SDS011;63714;55.812;37.658;2022-11-20T11:37:15;17.45;;;7.78;;
75139;SDS011;63714;55.812;37.658;2022-11-20T11:39:43;22.77;;;8.27;;
75139;SDS011;63714;55.812;37.658;2022-11-20T11:42:12;19.90;;;8.68;;
75139;SDS011;63714;55.812;37.658;2022-11-20T11:44:46;19.63;;;8.23;;
75139;SDS011;63714;55.812;37.658;2022-11-20T11:52:41;16.23;;;8.25;;
75139;SDS011;63714;55.812;37.658;2022-11-20T11:55:29;19.17;;;8.32;;
75139;SDS011;63714;55.812;37.658;2022-11-20T11:58:04;18.88;;;8.10;;
75139;SDS011;63714;55.812;37.658;2022-11-20T12:00:31;15.90;;;7.20;;
75139;SDS011;63714;55.812;37.658;2022-11-20T12:03:17;14.25;;;6.90;;
75139;SDS011;63714;55.812;37.658;2022-11-20T12:05:56;17.13;;;6.68;;
75139;SDS011;63714;55.812;37.658;2022-11-20T12:08:43;14.38;;;6.75;;
75139;SDS011;63714;55.812;37.658;2022-11-20T12:16:49;13.93;;;7.30;;
75139;SDS011;63714;55.812;37.658;2022-11-20T12:19:15;16.50;;;7.15;;
75139;SDS011;63714;55.812;37.658;2022-11-20T12:53:05;11.95;;;6.55;;
75139;SDS011;63714;55.812;37.658;2022-11-20T12:55:54;10.10;;;5.50;;
75139;SDS011;63714;55.812;37.658;2022-11-20T12:58:48;11.15;;;5.88;;
75139;SDS011;63714;55.812;37.658;2022-11-20T13:01:52;12.43;;;5.75;;
75139;SDS011;63714;55.812;37.658;2022-11-20T13:06:58;11.65;;;6.05;;
75139;SDS011;63714;55.812;37.658;2022-11-20T13:09:28;12.23;;;6.03;;
75139;SDS011;63714;55.812;37.658;2022-11-20T13:18:12;10.93;;;6.15;;
75139;SDS011;63714;55.812;37.658;2022-11-20T13:20:22;12.65;;;5.82;;
75139;SDS011;63714;55.812;37.658;2022-11-20T13:22:54;13.25;;;7.10;;
75139;SDS011;63714;55.812;37.658;2022-11-20T13:27:52;13.32;;;6.35;;
75139;SDS011;63714;55.812;37.658;2022-11-20T13:32:49;15.65;;;7.40;;
75139;SDS011;63714;55.812;37.658;2022-11-20T13:35:30;15.75;;;7.03;;
75139;SDS011;63714;55.812;37.658;2022-11-20T13:38:01;12.75;;;6.07;;
75139;SDS011;63714;55.812;37.658;2022-11-20T13:40:54;15.27;;;6.80;;
75139;SDS011;63714;55.812;37.658;2022-11-20T13:43:46;22.27;;;7.15;;
75139;SDS011;63714;55.812;37.658;2022-11-20T13:46:13;14.20;;;6.97;;
75139;SDS011;63714;55.812;37.658;2022-11-20T13:48:41;14.85;;;7.40;;
75139;SDS011;63714;55.812;37.658;2022-11-20T13:53:46;12.57;;;6.93;;
75139;SDS011;63714;55.812;37.658;2022-11-20T13:56:34;14.05;;;6.95;;
75139;SDS011;63714;55.812;37.658;2022-11-20T14:01:47;17.15;;;7.80;;
75139;SDS011;63714;55.812;37.658;2022-11-20T14:04:15;20.27;;;9.15;;
75139;SDS011;63714;55.812;37.658;2022-11-20T14:06:44;17.65;;;8.25;;
75139;SDS011;63714;55.812;37.658;2022-11-20T14:09:12;16.77;;;6.95;;
75139;SDS011;63714;55.812;37.658;2022-11-20T14:11:49;18.27;;;8.05;;
75139;SDS011;63714;55.812;37.658;2022-11-20T14:14:16;25.90;;;9.05;;
75139;SDS011;63714;55.812;37.658;2022-11-20T14:16:43;27.58;;;9.18;;
75139;SDS011;63714;55.812;37.658;2022-11-20T14:19:23;23.00;;;9.35;;
75139;SDS011;63714;55.812;37.658;2022-11-20T14:21:54;21.73;;;9.45;;
75139;SDS011;63714;55.812;37.658;2022-11-20T14:24:32;20.23;;;10.23;;
75139;SDS011;63714;55.812;37.658;2022-11-20T14:26:57;19.55;;;9.95;;
75139;SDS011;63714;55.812;37.658;2022-11-20T14:29:32;23.80;;;11.18;;
75139;SDS011;63714;55.812;37.658;2022-11-20T14:32:00;24.85;;;11.05;;
75139;SDS011;63714;55.812;37.658;2022-11-20T14:34:27;24.65;;;10.73;;
75139;SDS011;63714;55.812;37.658;2022-11-20T14:39:35;24.85;;;10.18;;
75139;SDS011;63714;55.812;37.658;2022-11-20T14:42:03;22.02;;;9.88;;
75139;SDS011;63714;55.812;37.658;2022-11-20T14:44:40;27.75;;;10.68;;
75139;SDS011;63714;55.812;37.658;2022-11-20T14:47:08;21.27;;;10.77;;
75139;SDS011;63714;55.812;37.658;2022-11-20T14:49:37;26.00;;;10.20;;
75139;SDS011;63714;55.812;37.658;2022-11-20T14:54:58;22.48;;;9.20;;
75139;SDS011;63714;55.812;37.658;2022-11-20T14:57:30;24.08;;;11.40;;
75139;SDS011;63714;55.812;37.658;2022-11-20T15:00:17;20.80;;;11.00;;
75139;SDS011;63714;55.812;37.658;2022-11-20T15:02:46;32.08;;;10.90;;
75139;SDS011;63714;55.812;37.658;2022-11-20T15:05:13;20.90;;;10.50;;
75139;SDS011;63714;55.812;37.658;2022-11-20T15:07:44;22.55;;;10.93;;
75139;SDS011;63714;55.812;37.658;2022-11-20T15:12:48;24.20;;;9.45;;
75139;SDS011;63714;55.812;37.658;2022-11-20T15:15:17;23.17;;;10.23;;
75139;SDS011;63714;55.812;37.658;2022-11-20T15:17:48;27.20;;;10.15;;
75139;SDS011;63714;55.812;37.658;2022-11-20T15:20:14;21.27;;;9.93;;
75139;SDS011;63714;55.812;37.658;2022-11-20T15:22:42;22.90;;;8.65;;
75139;SDS011;63714;55.812;37.658;2022-11-20T15:25:11;18.75;;;9.93;;
75139;SDS011;63714;55.812;37.658;2022-11-20T15:27:38;21.08;;;9.52;;
75139;SDS011;63714;55.812;37.658;2022-11-20T15:30:17;21.70;;;10.10;;
75139;SDS011;63714;55.812;37.658;2022-11-20T15:32:45;20.23;;;9.35;;
75139;SDS011;63714;55.812;37.658;2022-11-20T15:35:11;22.15;;;10.00;;
75139;SDS011;63714;55.812;37.658;2022-11-20T15:37:37;21.17;;;10.68;;
75139;SDS011;63714;55.812;37.658;2022-11-20T15:40:04;23.95;;;9.25;;
75139;SDS011;63714;55.812;37.658;2022-11-20T15:42:30;23.40;;;9.35;;
75139;SDS011;63714;55.812;37.658;2022-11-20T15:44:57;19.15;;;8.80;;
75139;SDS011;63714;55.812;37.658;2022-11-20T15:47:24;19.45;;;8.88;;
75139;SDS011;63714;55.812;37.658;2022-11-20T15:49:53;19.52;;;8.82;;
75139;SDS011;63714;55.812;37.658;2022-11-20T15:52:18;21.70;;;9.77;;
75139;SDS011;63714;55.812;37.658;2022-11-20T15:54:44;19.95;;;9.25;;
75139;SDS011;63714;55.812;37.658;2022-11-20T15:57:09;22.83;;;9.38;;
75139;SDS011;63714;55.812;37.658;2022-11-20T15:59:35;23.65;;;9.88;;
75139;SDS011;63714;55.812;37.658;2022-11-20T16:02:11;21.40;;;9.93;;
75139;SDS011;63714;55.812;37.658;2022-11-20T16:04:37;21.10;;;9.73;;
75139;SDS011;63714;55.812;37.658;2022-11-20T16:07:03;24.38;;;10.13;;
75139;SDS011;63714;55.812;37.658;2022-11-20T16:09:29;20.88;;;9.80;;
75139;SDS011;63714;55.812;37.658;2022-11-20T16:11:54;19.92;;;9.20;;
75139;SDS011;63714;55.812;37.658;2022-11-20T16:14:20;19.75;;;8.73;;
75139;SDS011;63714;55.812;37.658;2022-11-20T16:17:04;22.05;;;9.77;;
75139;SDS011;63714;55.812;37.658;2022-11-20T16:19:30;19.83;;;9.43;;
75139;SDS011;63714;55.812;37.658;2022-11-20T16:21:57;22.67;;;9.95;;
75139;SDS011;63714;55.812;37.658;2022-11-20T16:24:23;25.67;;;9.18;;